createdAt,value
2023-09-27T00:00:04.745Z,102025.00
2023-09-27T00:02:39.312Z,102005.50
2023-09-27T00:05:07.772Z,101992.41
2023-09-27T00:07:37.473Z,102022.28
2023-09-27T00:10:05.355Z,102014.66
2023-09-27T00:12:34.230Z,102022.00
2023-09-27T00:15:01.076Z,102027.38
2023-09-27T00:17:27.871Z,102018.25
2023-09-27T00:19:54.949Z,102024.88
2023-09-27T00:22:22.474Z,102014.59
2023-09-27T00:24:49.207Z,102021.69
2023-09-27T00:27:15.855Z,102023.72
2023-09-27T00:29:43.972Z,102024.78
2023-09-27T00:32:10.780Z,102028.88
2023-09-27T00:34:37.816Z,102022.47
2023-09-27T00:37:04.506Z,102036.53
2023-09-27T00:39:31.406Z,102032.50
2023-09-27T00:41:58.367Z,102022.09
2023-09-27T00:44:25.079Z,102034.09
2023-09-27T00:46:53.476Z,102017.81
2023-09-27T00:49:20.787Z,102016.31
2023-09-27T00:51:48.301Z,102009.25
2023-09-27T00:54:15.104Z,102012.88
2023-09-27T00:56:41.966Z,102021.56
2023-09-27T00:59:09.545Z,102027.78
2023-09-27T01:01:37.518Z,102025.31
2023-09-27T01:04:06.221Z,102028.13
2023-09-27T01:06:33.539Z,102018.44
2023-09-27T01:09:01.915Z,102018.44
2023-09-27T01:11:30.291Z,102031.34
2023-09-27T01:13:57.093Z,102035.19
2023-09-27T01:16:25.589Z,102041.41
2023-09-27T01:18:52.364Z,102034.44
2023-09-27T01:21:20.492Z,102029.09
2023-09-27T01:23:50.363Z,102025.78
2023-09-27T01:26:17.856Z,102025.66
2023-09-27T01:28:45.841Z,102028.88
2023-09-27T01:31:12.676Z,102032.00
2023-09-27T01:33:39.721Z,102035.41
2023-09-27T01:36:07.201Z,102040.97
2023-09-27T01:38:34.037Z,102050.22
2023-09-27T01:41:02.226Z,102048.38
2023-09-27T01:43:29.218Z,102042.78
2023-09-27T01:45:56.004Z,102037.41
2023-09-27T01:48:22.795Z,102042.50
2023-09-27T01:50:49.525Z,102043.16
2023-09-27T01:53:16.545Z,102031.84
2023-09-27T01:55:43.289Z,102042.00
2023-09-27T01:58:11.450Z,102044.31
2023-09-27T02:00:38.346Z,102054.84
2023-09-27T02:03:05.554Z,102061.38
2023-09-27T02:05:32.447Z,102053.03
2023-09-27T02:07:59.425Z,102047.00
2023-09-27T02:10:26.221Z,102052.38
2023-09-27T02:12:52.991Z,102042.63
2023-09-27T02:15:21.038Z,102059.97
2023-09-27T02:17:47.748Z,102061.22
2023-09-27T02:20:16.104Z,102048.91
2023-09-27T02:22:43.138Z,102045.06
2023-09-27T02:25:11.577Z,102036.56
2023-09-27T02:27:38.667Z,102035.94
2023-09-27T02:30:07.889Z,102040.53
2023-09-27T02:32:36.348Z,102044.94
2023-09-27T02:35:03.119Z,102042.03
2023-09-27T02:37:29.908Z,102039.19
2023-09-27T02:39:56.776Z,102042.09
2023-09-27T02:42:23.618Z,102040.75
2023-09-27T02:44:50.492Z,102040.00
2023-09-27T02:47:17.381Z,102033.41
2023-09-27T02:49:45.500Z,102035.50
2023-09-27T02:52:12.228Z,102033.00
2023-09-27T02:54:38.987Z,102040.72
2023-09-27T02:57:05.728Z,102041.84
2023-09-27T02:59:32.487Z,102039.94
2023-09-27T03:01:59.205Z,102054.88
2023-09-27T03:04:25.992Z,102047.97
2023-09-27T03:06:54.173Z,102043.81
2023-09-27T03:09:21.141Z,102043.50
2023-09-27T03:11:48.622Z,102036.69
2023-09-27T03:14:15.366Z,102040.19
2023-09-27T03:16:42.095Z,102023.81
2023-09-27T03:19:08.861Z,102027.69
2023-09-27T03:21:37.074Z,102016.13
2023-09-27T03:24:06.790Z,102010.78
2023-09-27T03:26:36.142Z,102010.56
2023-09-27T03:29:03.684Z,102023.41
2023-09-27T03:31:31.773Z,102016.13
2023-09-27T03:33:58.583Z,102023.63
2023-09-27T03:36:25.374Z,102022.44
2023-09-27T03:38:52.270Z,102023.94
2023-09-27T03:41:20.530Z,102021.28
2023-09-27T03:43:47.278Z,102030.91
2023-09-27T03:46:13.999Z,102030.91
2023-09-27T03:48:40.788Z,102040.97
2023-09-27T03:51:07.576Z,102047.41
2023-09-27T03:53:35.092Z,102036.91
2023-09-27T03:56:02.009Z,102044.31
2023-09-27T03:58:30.142Z,102056.19
2023-09-27T04:00:56.907Z,102057.16
2023-09-27T04:03:23.762Z,102056.50
2023-09-27T04:05:50.550Z,102049.75
2023-09-27T04:08:17.322Z,102053.81
2023-09-27T04:10:44.214Z,102066.47
2023-09-27T04:13:10.995Z,102069.13
2023-09-27T04:15:39.084Z,102065.09
2023-09-27T04:18:06.280Z,102061.75
2023-09-27T04:20:34.340Z,102068.19
2023-09-27T04:23:03.197Z,102076.22
2023-09-27T04:25:30.209Z,102070.22
2023-09-27T04:27:56.954Z,102061.41
2023-09-27T04:30:23.630Z,102056.34
2023-09-27T04:32:52.489Z,102047.75
2023-09-27T04:35:19.748Z,102038.53
2023-09-27T04:37:46.540Z,102054.34
2023-09-27T04:40:13.249Z,102060.97
2023-09-27T04:42:39.987Z,102047.59
2023-09-27T04:45:08.105Z,102049.81
2023-09-27T04:47:34.901Z,102049.38
2023-09-27T04:50:03.325Z,102041.44
2023-09-27T04:52:30.118Z,102017.47
2023-09-27T04:54:57.066Z,102026.31
2023-09-27T04:57:24.040Z,102025.53
2023-09-27T04:59:52.359Z,102029.50
2023-09-27T05:02:19.306Z,102038.81
2023-09-27T05:04:46.054Z,102038.56
2023-09-27T05:07:14.232Z,102040.72
2023-09-27T05:09:41.038Z,102034.34
2023-09-27T05:12:07.802Z,102035.84
2023-09-27T05:14:34.622Z,102042.63
2023-09-27T05:17:01.414Z,102039.19
2023-09-27T05:19:28.166Z,102024.41
2023-09-27T05:21:54.876Z,102032.34
2023-09-27T05:24:22.947Z,102033.84
2023-09-27T05:26:49.572Z,102041.97
2023-09-27T05:29:16.304Z,102037.88
2023-09-27T05:31:44.284Z,102030.16
2023-09-27T05:34:11.155Z,102014.31
2023-09-27T05:36:37.935Z,102022.47
2023-09-27T05:39:05.168Z,102034.91
2023-09-27T05:41:33.361Z,102041.97
2023-09-27T05:44:00.146Z,102043.31
2023-09-27T05:46:27.608Z,102042.63
2023-09-27T05:48:54.596Z,102042.63
2023-09-27T05:51:22.757Z,102048.84
2023-09-27T05:53:49.424Z,102051.53
2023-09-27T05:56:16.150Z,102050.34
2023-09-27T05:58:44.194Z,102048.47
2023-09-27T06:01:10.991Z,102046.94
2023-09-27T06:03:37.929Z,102048.19
2023-09-27T06:06:04.824Z,102043.19
2023-09-27T06:08:31.840Z,102046.25
2023-09-27T06:10:58.851Z,102042.91
2023-09-27T06:13:25.690Z,102050.75
2023-09-27T06:15:53.814Z,102057.13
2023-09-27T06:18:20.671Z,102068.50
2023-09-27T06:20:47.720Z,102066.41
2023-09-27T06:23:14.759Z,102073.22
2023-09-27T06:25:41.520Z,102069.28
2023-09-27T06:28:08.203Z,102077.31
2023-09-27T06:30:34.956Z,102074.59
2023-09-27T06:33:03.373Z,102067.16
2023-09-27T06:35:30.504Z,102056.72
2023-09-27T06:37:57.249Z,102049.44
2023-09-27T06:40:25.302Z,102046.69
2023-09-27T06:42:52.145Z,102056.22
2023-09-27T06:45:19.782Z,102050.69
2023-09-27T06:47:46.846Z,102055.44
2023-09-27T06:50:16.168Z,102050.63
2023-09-27T06:52:43.613Z,102047.34
2023-09-27T06:55:11.061Z,102055.19
2023-09-27T06:57:38.213Z,102061.81
2023-09-27T07:00:08.403Z,102050.72
2023-09-27T07:02:35.306Z,102049.97
2023-09-27T07:05:02.194Z,102050.53
2023-09-27T07:07:30.382Z,102051.72
2023-09-27T07:09:57.186Z,102060.69
2023-09-27T07:12:24.119Z,102071.53
2023-09-27T07:14:50.837Z,102064.88
2023-09-27T07:17:17.695Z,102051.91
2023-09-27T07:19:44.529Z,102047.06
2023-09-27T07:22:11.285Z,102042.31
2023-09-27T07:24:39.402Z,102060.09
2023-09-27T07:27:06.117Z,102072.66
2023-09-27T07:29:33.020Z,102076.59
2023-09-27T07:31:59.774Z,102081.41
2023-09-27T07:34:26.492Z,102087.31
2023-09-27T07:36:53.213Z,102089.53
2023-09-27T07:39:19.905Z,102083.47
2023-09-27T07:41:47.959Z,102088.56
2023-09-27T07:44:14.716Z,102088.72
2023-09-27T07:46:41.539Z,102095.50
2023-09-27T07:49:08.344Z,102101.44
2023-09-27T07:51:35.086Z,102100.31
2023-09-27T07:54:01.880Z,102102.16
2023-09-27T07:56:28.628Z,102105.50
2023-09-27T07:58:57.116Z,102098.19
2023-09-27T08:01:24.520Z,102086.72
2023-09-27T08:03:52.562Z,102083.50
2023-09-27T08:06:20.461Z,102078.16
2023-09-27T08:08:47.228Z,102059.06
2023-09-27T08:11:14.117Z,102072.38
2023-09-27T08:13:41.321Z,102084.47
2023-09-27T08:16:09.513Z,102099.16
2023-09-27T08:18:36.705Z,102092.66
2023-09-27T08:21:03.750Z,102088.22
2023-09-27T08:23:30.556Z,102086.19
2023-09-27T08:25:59.789Z,102097.91
2023-09-27T08:28:26.693Z,102101.66
2023-09-27T08:30:58.206Z,102099.50
2023-09-27T08:33:26.486Z,102099.91
2023-09-27T08:35:53.487Z,102102.19
2023-09-27T08:38:20.530Z,102111.72
2023-09-27T08:40:48.973Z,102107.00
2023-09-27T08:43:16.516Z,102104.94
2023-09-27T08:45:43.792Z,102109.00
2023-09-27T08:48:10.770Z,102114.72
2023-09-27T08:50:39.119Z,102118.50
2023-09-27T08:53:06.028Z,102120.41
2023-09-27T08:55:33.824Z,102110.72
2023-09-27T08:58:01.838Z,102111.41
2023-09-27T09:00:29.045Z,102126.19
2023-09-27T09:02:56.777Z,102104.59
2023-09-27T09:05:25.100Z,102086.91
2023-09-27T09:07:53.954Z,102091.72
2023-09-27T09:10:20.645Z,102089.25
2023-09-27T09:12:47.490Z,102068.72
2023-09-27T09:15:29.498Z,102074.69
2023-09-27T09:17:56.787Z,102058.47
2023-09-27T09:20:23.635Z,102086.56
2023-09-27T09:22:50.637Z,102060.38
2023-09-27T09:25:18.740Z,102073.13
2023-09-27T09:27:45.766Z,102074.25
2023-09-27T09:30:12.620Z,102075.50
2023-09-27T09:32:49.687Z,102085.69
2023-09-27T09:35:29.694Z,102085.03
2023-09-27T09:37:56.479Z,102083.38
2023-09-27T09:40:24.630Z,102090.94
2023-09-27T09:42:52.029Z,102087.53
2023-09-27T09:45:19.370Z,102081.06
2023-09-27T09:47:48.158Z,102072.31
2023-09-27T09:50:16.195Z,102061.31
2023-09-27T09:52:48.739Z,102051.72
2023-09-27T09:55:31.046Z,102062.88
2023-09-27T09:58:17.050Z,102065.47
2023-09-27T10:00:46.105Z,102061.19
2023-09-27T10:03:14.210Z,102062.31
2023-09-27T10:05:41.201Z,102057.09
2023-09-27T10:08:08.486Z,102050.88
2023-09-27T10:10:36.200Z,102039.31
2023-09-27T10:13:06.551Z,102037.22
2023-09-27T10:15:35.261Z,102038.72
2023-09-27T10:18:36.934Z,102023.75
2023-09-27T10:21:07.914Z,102015.09
2023-09-27T10:23:36.293Z,102023.19
2023-09-27T10:26:19.087Z,102012.66
2023-09-27T10:29:11.271Z,102027.88
2023-09-27T10:32:20.359Z,102014.25
2023-09-27T10:34:47.913Z,102013.81
2023-09-27T10:37:19.055Z,102007.13
2023-09-27T10:40:20.622Z,102010.97
2023-09-27T10:42:47.836Z,102008.75
2023-09-27T10:45:14.764Z,102005.28
2023-09-27T10:47:42.957Z,101996.78
2023-09-27T10:50:11.054Z,101994.53
2023-09-27T10:52:39.138Z,101996.13
2023-09-27T10:55:10.636Z,102017.25
2023-09-27T10:57:41.077Z,102006.75
2023-09-27T11:00:08.268Z,101995.06
2023-09-27T11:02:35.171Z,102005.78
2023-09-27T11:05:04.032Z,102015.16
2023-09-27T11:07:44.344Z,102006.94
2023-09-27T11:10:11.088Z,102012.16
2023-09-27T11:12:37.954Z,102021.63
2023-09-27T11:15:05.665Z,102008.75
2023-09-27T11:17:32.561Z,101997.00
2023-09-27T11:20:12.467Z,101992.72
2023-09-27T11:22:39.333Z,102000.69
2023-09-27T11:25:26.112Z,101985.78
2023-09-27T11:27:52.837Z,101984.22
2023-09-27T11:30:24.031Z,101980.59
2023-09-27T11:32:51.058Z,101980.97
2023-09-27T11:35:21.050Z,101977.19
2023-09-27T11:37:51.281Z,101977.78
2023-09-27T11:40:31.823Z,101964.00
2023-09-27T11:42:58.580Z,101966.66
2023-09-27T11:45:25.401Z,101965.84
2023-09-27T11:47:52.380Z,101970.91
2023-09-27T11:50:21.994Z,101969.88
2023-09-27T11:52:48.866Z,101961.38
2023-09-27T11:55:15.882Z,101957.63
2023-09-27T11:57:42.917Z,101954.84
2023-09-27T12:00:11.202Z,101951.84
2023-09-27T12:02:48.082Z,101941.94
2023-09-27T12:05:20.898Z,101935.47
2023-09-27T12:07:48.357Z,101948.19
2023-09-27T12:10:15.155Z,101935.63
2023-09-27T12:12:41.917Z,101926.44
2023-09-27T12:15:08.940Z,101928.03
2023-09-27T12:17:35.898Z,101917.09
2023-09-27T12:20:02.744Z,101913.22
2023-09-27T12:22:30.885Z,101910.44
2023-09-27T12:24:57.624Z,101913.88
2023-09-27T12:27:24.428Z,101896.72
2023-09-27T12:29:51.163Z,101889.03
2023-09-27T12:32:18.020Z,101890.94
2023-09-27T12:34:44.747Z,101891.44
2023-09-27T12:37:11.395Z,101891.75
2023-09-27T12:39:39.889Z,101885.16
2023-09-27T12:42:06.657Z,101883.44
2023-09-27T12:44:33.519Z,101877.84
2023-09-27T12:47:00.235Z,101874.78
2023-09-27T12:49:27.135Z,101867.97
2023-09-27T12:51:53.958Z,101850.81
2023-09-27T12:54:21.139Z,101845.91
2023-09-27T12:56:49.285Z,101845.53
2023-09-27T12:59:16.096Z,101833.84
2023-09-27T13:01:44.377Z,101828.94
2023-09-27T13:04:11.349Z,101832.44
2023-09-27T13:06:38.215Z,101830.59
2023-09-27T13:09:04.966Z,101818.88
2023-09-27T13:11:31.760Z,101803.78
2023-09-27T13:13:59.879Z,101802.91
2023-09-27T13:16:26.600Z,101806.84
2023-09-27T13:18:54.894Z,101812.06
2023-09-27T13:21:21.792Z,101803.47
2023-09-27T13:23:48.806Z,101802.19
2023-09-27T13:26:15.719Z,101803.84
2023-09-27T13:28:42.502Z,101802.34
2023-09-27T13:31:10.524Z,101802.91
2023-09-27T13:33:37.377Z,101803.81
2023-09-27T13:36:04.502Z,101801.41
2023-09-27T13:38:31.361Z,101802.53
2023-09-27T13:40:59.424Z,101793.00
2023-09-27T13:43:26.998Z,101796.84
2023-09-27T13:45:53.669Z,101791.69
2023-09-27T13:48:23.171Z,101782.88
2023-09-27T13:50:49.929Z,101771.22
2023-09-27T13:53:17.552Z,101765.03
2023-09-27T13:55:44.247Z,101752.84
2023-09-27T13:58:11.064Z,101759.47
2023-09-27T14:00:37.782Z,101751.47
2023-09-27T14:03:05.040Z,101745.03
2023-09-27T14:05:33.467Z,101752.16
2023-09-27T14:08:00.354Z,101740.63
2023-09-27T14:10:27.122Z,101739.06
2023-09-27T14:12:53.957Z,101741.59
2023-09-27T14:15:20.971Z,101744.31
2023-09-27T14:17:47.692Z,101740.94
2023-09-27T14:20:14.546Z,101752.16
2023-09-27T14:22:43.158Z,101739.25
2023-09-27T14:25:10.296Z,101743.66
2023-09-27T14:27:37.662Z,101738.22
2023-09-27T14:30:05.489Z,101740.56
2023-09-27T14:32:32.442Z,101740.97
2023-09-27T14:34:59.450Z,101730.59
2023-09-27T14:37:26.282Z,101730.22
2023-09-27T14:39:54.398Z,101720.03
2023-09-27T14:42:21.173Z,101717.69
2023-09-27T14:44:48.146Z,101720.47
2023-09-27T14:47:15.073Z,101719.81
2023-09-27T14:49:41.855Z,101703.59
2023-09-27T14:52:08.671Z,101700.91
2023-09-27T14:54:35.370Z,101699.88
2023-09-27T14:57:03.511Z,101691.91
2023-09-27T14:59:30.222Z,101687.31
2023-09-27T15:01:57.120Z,101684.56
2023-09-27T15:04:24.130Z,101680.63
2023-09-27T15:06:51.036Z,101676.03
2023-09-27T15:09:19.573Z,101672.03
2023-09-27T15:11:46.272Z,101669.13
2023-09-27T15:14:14.316Z,101668.41
2023-09-27T15:16:41.177Z,101671.94
2023-09-27T15:19:08.023Z,101654.81
2023-09-27T15:21:34.722Z,101657.19
2023-09-27T15:24:01.432Z,101660.66
2023-09-27T15:26:28.113Z,101658.28
2023-09-27T15:28:55.000Z,101649.31
2023-09-27T15:31:23.308Z,101647.44
2023-09-27T15:33:50.132Z,101643.00
2023-09-27T15:36:16.918Z,101631.84
2023-09-27T15:38:43.667Z,101630.56
2023-09-27T15:41:15.219Z,101623.63
2023-09-27T15:43:42.335Z,101621.88
2023-09-27T15:46:09.346Z,101615.09
2023-09-27T15:48:38.427Z,101614.22
2023-09-27T15:51:06.784Z,101608.91
2023-09-27T15:53:34.447Z,101592.25
2023-09-27T15:56:02.430Z,101592.91
2023-09-27T15:58:31.607Z,101575.75
2023-09-27T16:00:59.769Z,101578.09
2023-09-27T16:03:26.808Z,101563.44
2023-09-27T16:05:55.209Z,101563.06
2023-09-27T16:08:22.995Z,101563.88
2023-09-27T16:10:55.194Z,101571.06
2023-09-27T16:13:22.926Z,101580.50
2023-09-27T16:15:51.348Z,101578.59
2023-09-27T16:18:19.511Z,101578.38
2023-09-27T16:20:46.889Z,101563.91
2023-09-27T16:23:15.300Z,101570.66
2023-09-27T16:25:43.532Z,101570.44
2023-09-27T16:28:10.598Z,101570.19
2023-09-27T16:30:39.876Z,101557.56
2023-09-27T16:33:06.782Z,101556.63
2023-09-27T16:35:36.776Z,101552.31
2023-09-27T16:38:04.090Z,101544.28
2023-09-27T16:40:32.488Z,101539.09
2023-09-27T16:42:59.444Z,101539.84
2023-09-27T16:45:26.446Z,101551.72
2023-09-27T16:47:53.126Z,101556.72
2023-09-27T16:50:19.986Z,101551.38
2023-09-27T16:52:46.835Z,101548.72
2023-09-27T16:55:13.572Z,101556.38
2023-09-27T16:57:41.712Z,101554.44
2023-09-27T17:00:09.677Z,101541.69
2023-09-27T17:02:36.449Z,101549.53
2023-09-27T17:05:03.479Z,101546.00
2023-09-27T17:07:30.394Z,101545.59
2023-09-27T17:09:57.194Z,101544.63
2023-09-27T17:12:23.869Z,101528.47
2023-09-27T17:14:52.025Z,101521.94
2023-09-27T17:17:18.779Z,101523.81
2023-09-27T17:19:45.487Z,101525.22
2023-09-27T17:22:13.913Z,101528.22
2023-09-27T17:24:40.640Z,101524.09
2023-09-27T17:27:07.743Z,101524.56
2023-09-27T17:29:34.574Z,101530.25
2023-09-27T17:32:02.969Z,101530.38
2023-09-27T17:34:29.982Z,101529.94
2023-09-27T17:36:56.854Z,101525.13
2023-09-27T17:39:23.668Z,101516.88
2023-09-27T17:41:50.568Z,101513.50
2023-09-27T17:44:17.285Z,101511.50
2023-09-27T17:46:44.225Z,101491.66
2023-09-27T17:49:12.427Z,101497.34
2023-09-27T17:51:39.487Z,101489.09
2023-09-27T17:54:07.739Z,101501.72
2023-09-27T17:56:37.380Z,101496.03
2023-09-27T17:59:04.567Z,101501.72
2023-09-27T18:01:33.027Z,101498.31
2023-09-27T18:04:03.202Z,101493.94
2023-09-27T18:06:31.593Z,101496.50
2023-09-27T18:08:59.124Z,101495.50
2023-09-27T18:11:25.938Z,101500.72
2023-09-27T18:13:52.995Z,101494.66
2023-09-27T18:16:21.014Z,101490.53
2023-09-27T18:18:49.745Z,101481.47
2023-09-27T18:21:18.606Z,101483.44
2023-09-27T18:23:47.622Z,101481.31
2023-09-27T18:26:14.421Z,101489.69
2023-09-27T18:28:41.420Z,101481.47
2023-09-27T18:31:08.598Z,101477.34
2023-09-27T18:33:35.406Z,101480.19
2023-09-27T18:36:02.791Z,101485.00
2023-09-27T18:38:29.550Z,101477.06
2023-09-27T18:40:57.697Z,101472.81
2023-09-27T18:43:24.835Z,101467.00
2023-09-27T18:45:51.755Z,101468.41
2023-09-27T18:48:18.568Z,101460.34
2023-09-27T18:50:45.803Z,101452.25
2023-09-27T18:53:12.588Z,101442.19
2023-09-27T18:55:39.360Z,101446.59
2023-09-27T18:58:08.143Z,101456.38
2023-09-27T19:00:35.262Z,101447.84
2023-09-27T19:03:06.829Z,101416.97
2023-09-27T19:05:33.912Z,101420.78
2023-09-27T19:08:01.585Z,101426.75
2023-09-27T19:10:28.411Z,101424.06
2023-09-27T19:12:55.344Z,101426.47
2023-09-27T19:15:23.716Z,101420.78
2023-09-27T19:17:50.435Z,101428.03
2023-09-27T19:20:17.225Z,101420.22
2023-09-27T19:22:46.795Z,101415.97
2023-09-27T19:25:15.769Z,101415.97
2023-09-27T19:27:47.277Z,101402.38
2023-09-27T19:30:15.280Z,101410.16
2023-09-27T19:32:43.557Z,101395.56
2023-09-27T19:35:10.720Z,101390.19
2023-09-27T19:37:37.713Z,101378.84
2023-09-27T19:40:05.362Z,101377.44
2023-09-27T19:42:32.308Z,101368.38
2023-09-27T19:44:59.028Z,101351.94
2023-09-27T19:47:25.756Z,101336.63
2023-09-27T19:49:54.077Z,101337.19
2023-09-27T19:52:21.665Z,101325.00
2023-09-27T19:54:48.368Z,101326.94
2023-09-27T19:57:18.170Z,101327.38
2023-09-27T19:59:44.887Z,101336.41
2023-09-27T20:02:11.646Z,101341.19
2023-09-27T20:04:38.495Z,101340.84
2023-09-27T20:07:06.705Z,101334.03
2023-09-27T20:09:33.550Z,101325.13
2023-09-27T20:12:00.388Z,101324.59
2023-09-27T20:14:30.373Z,101318.94
2023-09-27T20:16:58.666Z,101310.16
2023-09-27T20:19:28.052Z,101309.66
2023-09-27T20:21:54.639Z,101293.63
2023-09-27T20:24:23.232Z,101290.91
2023-09-27T20:26:49.956Z,101287.25
2023-09-27T20:29:16.877Z,101278.56
2023-09-27T20:31:43.750Z,101268.09
2023-09-27T20:34:10.828Z,101247.81
2023-09-27T20:36:37.634Z,101234.50
2023-09-27T20:39:04.660Z,101254.03
2023-09-27T20:41:32.821Z,101257.81
2023-09-27T20:43:59.698Z,101261.31
2023-09-27T20:46:26.456Z,101261.28
2023-09-27T20:48:53.276Z,101267.25
2023-09-27T20:51:20.298Z,101269.63
2023-09-27T20:53:47.012Z,101265.38
2023-09-27T20:56:13.920Z,101264.53
2023-09-27T20:58:42.831Z,101257.28
2023-09-27T21:01:26.433Z,101241.34
2023-09-27T21:03:53.510Z,101223.34
2023-09-27T21:06:28.008Z,101199.84
2023-09-27T21:08:56.285Z,101175.88
2023-09-27T21:11:23.793Z,101168.78
2023-09-27T21:13:54.201Z,101205.09
2023-09-27T21:16:22.490Z,101251.94
2023-09-27T21:18:49.247Z,101274.66
2023-09-27T21:21:15.977Z,101294.19
2023-09-27T21:23:42.637Z,101293.72
2023-09-27T21:26:09.435Z,101284.72
2023-09-27T21:28:36.230Z,101288.97
2023-09-27T21:31:06.780Z,101290.88
2023-09-27T21:33:34.323Z,101297.59
2023-09-27T21:36:01.274Z,101300.75
2023-09-27T21:38:27.948Z,101305.00
2023-09-27T21:40:54.764Z,101282.88
2023-09-27T21:43:21.649Z,101300.13
2023-09-27T21:45:48.664Z,101293.78
2023-09-27T21:48:16.900Z,101300.94
2023-09-27T21:50:43.620Z,101303.09
2023-09-27T21:53:11.182Z,101304.25
2023-09-27T21:55:38.280Z,101303.53
2023-09-27T21:58:05.108Z,101304.88
2023-09-27T22:00:32.013Z,101294.53
2023-09-27T22:02:59.396Z,101274.81
2023-09-27T22:05:29.861Z,101268.00
2023-09-27T22:07:56.959Z,101268.31
2023-09-27T22:10:25.935Z,101273.59
2023-09-27T22:12:54.007Z,101256.47
2023-09-27T22:15:20.841Z,101248.66
2023-09-27T22:17:47.615Z,101238.56
2023-09-27T22:20:14.364Z,101251.44
2023-09-27T22:22:42.520Z,101259.84
2023-09-27T22:25:09.850Z,101259.53
2023-09-27T22:27:36.682Z,101255.06
2023-09-27T22:30:03.810Z,101246.16
2023-09-27T22:32:30.574Z,101259.41
2023-09-27T22:34:57.350Z,101259.00
2023-09-27T22:37:24.080Z,101249.34
2023-09-27T22:40:01.090Z,101248.22
2023-09-27T22:42:35.544Z,101243.28
2023-09-27T22:45:02.234Z,101236.34
2023-09-27T22:47:28.990Z,101238.13
2023-09-27T22:49:55.749Z,101232.56
2023-09-27T22:52:22.463Z,101232.56
2023-09-27T22:54:49.196Z,101233.88
2023-09-27T22:57:17.285Z,101237.84
2023-09-27T22:59:43.957Z,101237.84
2023-09-27T23:02:11.047Z,101230.75
2023-09-27T23:04:38.032Z,101236.63
2023-09-27T23:07:04.840Z,101238.47
2023-09-27T23:09:31.952Z,101222.59
2023-09-27T23:11:58.742Z,101222.69
2023-09-27T23:14:26.891Z,101221.22
2023-09-27T23:16:53.569Z,101218.00
2023-09-27T23:19:20.264Z,101232.56
2023-09-27T23:21:47.126Z,101221.88
2023-09-27T23:24:13.833Z,101224.28
2023-09-27T23:26:40.566Z,101217.56
2023-09-27T23:29:07.284Z,101220.03
2023-09-27T23:31:35.521Z,101224.53
2023-09-27T23:34:02.283Z,101220.28
2023-09-27T23:36:29.052Z,101222.91
2023-09-27T23:38:56.022Z,101230.00
2023-09-27T23:41:23.633Z,101232.97
2023-09-27T23:43:50.394Z,101223.50
2023-09-27T23:46:17.126Z,101213.81
2023-09-27T23:48:45.176Z,101221.94
2023-09-27T23:51:11.917Z,101220.84
2023-09-27T23:53:38.714Z,101223.28
2023-09-27T23:56:05.432Z,101228.44
2023-09-27T23:58:32.180Z,101222.81
